createdAt,value
2017-07-18T05:32:22.679Z,15.6
2017-07-18T05:33:24.027Z,15.5
2017-07-18T05:34:45.459Z,15.5
2017-07-18T05:35:46.815Z,15.6
2017-07-18T05:37:08.239Z,15.7
2017-07-18T05:38:09.590Z,15.7
2017-07-18T05:39:31.235Z,15.7
2017-07-18T05:40:32.590Z,15.9
2017-07-18T05:41:54.019Z,15.8
2017-07-18T05:42:55.370Z,15.8
2017-07-18T05:44:16.799Z,15.7
2017-07-18T05:45:18.163Z,15.7
2017-07-18T05:46:40.042Z,15.8
2017-07-18T05:47:41.392Z,15.9
2017-07-18T05:49:02.823Z,16.0
2017-07-18T05:50:04.177Z,15.8
2017-07-18T05:51:25.611Z,15.9
2017-07-18T05:52:26.967Z,16.0
2017-07-18T05:53:48.774Z,16.0
2017-07-18T05:54:50.127Z,16.0
2017-07-18T05:56:11.554Z,16.3
2017-07-18T05:57:12.902Z,16.3
2017-07-18T05:58:34.329Z,16.2
2017-07-18T05:59:35.678Z,16.1
2017-07-18T06:00:57.327Z,16.1
2017-07-18T06:01:58.681Z,16.1
2017-07-18T06:03:20.111Z,16.2
2017-07-18T06:04:21.465Z,16.1
2017-07-18T06:05:42.911Z,16.1
2017-07-18T06:06:44.256Z,16.1
2017-07-18T06:08:05.883Z,16.0
2017-07-18T06:09:07.242Z,16.0
2017-07-18T06:10:28.673Z,16.1
2017-07-18T06:11:30.026Z,16.1
2017-07-18T06:12:31.377Z,16.3
2017-07-18T06:13:32.733Z,16.3
2017-07-18T06:14:34.089Z,16.3
2017-07-18T06:15:35.478Z,16.4
2017-07-18T06:16:36.833Z,16.3
2017-07-18T06:17:38.189Z,16.4
2017-07-18T06:18:39.570Z,16.5
2017-07-18T06:19:40.904Z,16.6
2017-07-18T06:20:42.261Z,16.8
2017-07-18T06:21:43.620Z,16.7
2017-07-18T06:22:44.971Z,16.9
2017-07-18T06:23:46.323Z,17.1
2017-07-18T06:24:47.685Z,17.0
2017-07-18T06:25:49.037Z,17.0
2017-07-18T06:26:50.391Z,17.3
2017-07-18T06:27:51.745Z,17.3
2017-07-18T06:28:53.100Z,17.2
2017-07-18T06:29:54.453Z,17.2
2017-07-18T06:30:55.809Z,17.4
2017-07-18T06:31:57.165Z,17.3
2017-07-18T06:32:58.520Z,17.3
2017-07-18T06:33:59.872Z,17.4
2017-07-18T06:35:06.494Z,17.4
2017-07-18T06:36:07.805Z,17.2
2017-07-18T06:37:10.498Z,17.2
2017-07-18T06:38:18.442Z,17.0
2017-07-18T06:39:27.068Z,16.9
2017-07-18T06:40:28.356Z,17.0
2017-07-18T06:41:29.712Z,17.1
2017-07-18T06:42:31.068Z,17.2
2017-07-18T06:43:32.423Z,17.2
2017-07-18T06:44:33.844Z,17.0
2017-07-18T06:45:41.085Z,17.1
2017-07-18T06:46:42.391Z,17.1
2017-07-18T06:47:43.742Z,17.1
2017-07-18T06:48:45.100Z,17.2
2017-07-18T06:49:46.457Z,17.3
2017-07-18T06:50:47.813Z,17.5
2017-07-18T06:51:49.985Z,17.6
2017-07-18T06:52:51.813Z,17.6
2017-07-18T06:53:53.451Z,17.6
2017-07-18T06:54:54.805Z,17.8
2017-07-18T06:55:56.517Z,17.7
2017-07-18T06:56:57.874Z,17.5
2017-07-18T06:57:59.229Z,17.6
2017-07-18T06:59:00.589Z,17.6
2017-07-18T07:00:01.940Z,17.6
2017-07-18T07:01:03.312Z,17.7
2017-07-18T07:02:04.664Z,17.5
2017-07-18T07:03:06.019Z,17.6
2017-07-18T07:04:07.374Z,17.8
2017-07-18T07:05:08.726Z,17.8
2017-07-18T07:06:10.084Z,17.8
2017-07-18T07:07:11.439Z,17.9
2017-07-18T07:08:12.798Z,17.9
2017-07-18T07:09:14.149Z,17.8
2017-07-18T07:10:15.510Z,17.8
2017-07-18T07:11:16.896Z,18.0
2017-07-18T07:12:18.215Z,18.1
2017-07-18T07:13:19.572Z,18.1
2017-07-18T07:14:20.927Z,18.3
2017-07-18T07:15:22.284Z,18.3
2017-07-18T07:16:23.641Z,18.4
2017-07-18T07:17:24.994Z,18.4
2017-07-18T07:18:26.346Z,18.4
2017-07-18T07:19:27.700Z,18.4
2017-07-18T07:20:29.060Z,18.5
2017-07-18T07:21:30.413Z,18.5
2017-07-18T07:22:31.771Z,18.1
2017-07-18T07:23:33.124Z,18.3
2017-07-18T07:24:34.479Z,18.3
2017-07-18T07:25:35.833Z,18.4
2017-07-18T07:26:37.190Z,18.5
2017-07-18T07:27:38.545Z,18.5
2017-07-18T07:28:39.901Z,18.6
2017-07-18T07:29:41.256Z,18.7
2017-07-18T07:30:42.614Z,18.7
2017-07-18T07:31:43.966Z,18.7
2017-07-18T07:32:45.322Z,18.8
2017-07-18T07:33:46.676Z,19.0
2017-07-18T07:34:48.035Z,19.1
2017-07-18T07:35:49.389Z,19.0
2017-07-18T07:36:50.747Z,19.0
2017-07-18T07:37:52.100Z,19.0
2017-07-18T07:38:53.454Z,18.9
2017-07-18T07:39:54.807Z,19.0
2017-07-18T07:40:56.163Z,19.0
2017-07-18T07:41:57.533Z,18.9
2017-07-18T07:42:58.899Z,19.2
2017-07-18T07:44:00.264Z,19.4
2017-07-18T07:45:01.622Z,19.1
2017-07-18T07:46:02.979Z,19.2
2017-07-18T07:47:04.352Z,19.2
2017-07-18T07:48:05.710Z,19.2
2017-07-18T07:49:07.081Z,19.2
2017-07-18T07:50:08.439Z,19.3
2017-07-18T07:51:09.800Z,19.4
2017-07-18T07:52:11.155Z,19.4
2017-07-18T07:53:12.511Z,19.4
2017-07-18T07:54:13.866Z,19.4
2017-07-18T07:55:15.225Z,19.4
2017-07-18T07:56:16.585Z,19.3
2017-07-18T07:57:17.943Z,19.4
2017-07-18T07:58:19.357Z,19.5
2017-07-18T07:59:20.804Z,19.7
2017-07-18T08:00:22.154Z,19.8
2017-07-18T08:01:23.510Z,19.6
2017-07-18T08:02:25.467Z,19.7
2017-07-18T08:03:26.828Z,19.7
2017-07-18T08:04:28.185Z,19.8
2017-07-18T08:05:29.542Z,19.9
2017-07-18T08:06:30.895Z,19.8
2017-07-18T08:07:32.248Z,19.6
2017-07-18T08:08:33.605Z,19.6
2017-07-18T08:09:34.959Z,19.6
2017-07-18T08:10:36.317Z,19.5
2017-07-18T08:11:37.674Z,19.5
2017-07-18T08:12:39.031Z,19.9
2017-07-18T08:13:40.953Z,19.8
2017-07-18T08:14:42.309Z,20.0
2017-07-18T08:15:43.663Z,20.0
2017-07-18T08:16:45.020Z,20.0
2017-07-18T08:17:46.375Z,19.9
2017-07-18T08:18:47.747Z,19.9
2017-07-18T08:19:49.107Z,19.8
2017-07-18T08:20:50.463Z,20.0
2017-07-18T08:21:51.822Z,20.2
2017-07-18T08:22:53.178Z,20.2
2017-07-18T08:23:54.534Z,20.3
2017-07-18T08:24:55.891Z,20.2
2017-07-18T08:25:57.247Z,20.3
2017-07-18T08:26:58.605Z,20.4
2017-07-18T08:27:59.965Z,20.5
2017-07-18T08:29:01.320Z,20.6
2017-07-18T08:30:02.686Z,20.5
2017-07-18T08:31:04.039Z,20.6
2017-07-18T08:32:05.394Z,20.7
2017-07-18T08:33:06.760Z,20.6
2017-07-18T08:34:08.116Z,20.7
2017-07-18T08:35:09.473Z,20.9
2017-07-18T08:36:10.833Z,21.0
2017-07-18T08:37:12.185Z,21.1
2017-07-18T08:38:13.546Z,21.0
2017-07-18T08:39:14.903Z,20.9
2017-07-18T08:40:16.259Z,21.0
2017-07-18T08:41:17.619Z,21.1
2017-07-18T08:42:18.972Z,21.2
2017-07-18T08:43:20.328Z,21.2
2017-07-18T08:44:21.684Z,21.2
2017-07-18T08:45:23.039Z,21.1
2017-07-18T08:46:24.399Z,21.1
2017-07-18T08:47:25.760Z,21.5
2017-07-18T08:48:27.119Z,21.2
2017-07-18T08:49:28.481Z,21.3
2017-07-18T08:50:29.834Z,21.0
2017-07-18T08:51:31.187Z,21.3
2017-07-18T08:52:32.546Z,21.5
2017-07-18T08:53:33.906Z,21.6
2017-07-18T08:54:35.267Z,21.8
2017-07-18T08:55:36.628Z,21.8
2017-07-18T08:56:37.986Z,21.7
2017-07-18T08:57:39.352Z,21.6
2017-07-18T08:58:40.705Z,21.8
2017-07-18T08:59:42.062Z,21.8
2017-07-18T09:00:43.425Z,21.9
2017-07-18T09:01:44.787Z,21.7
2017-07-18T09:02:46.145Z,21.6
2017-07-18T09:03:47.503Z,22.0
2017-07-18T09:04:48.859Z,22.2
2017-07-18T09:05:50.287Z,22.3
2017-07-18T09:06:51.649Z,22.1
2017-07-18T09:07:53.006Z,22.1
2017-07-18T09:08:54.368Z,22.3
2017-07-18T09:09:55.726Z,22.2
2017-07-18T09:10:57.080Z,22.2
2017-07-18T09:11:58.439Z,22.3
2017-07-18T09:12:59.796Z,22.3
2017-07-18T09:14:01.158Z,22.5
2017-07-18T09:15:02.528Z,22.5
2017-07-18T09:16:03.887Z,22.5
2017-07-18T09:17:05.252Z,22.7
2017-07-18T09:18:06.611Z,22.8
2017-07-18T09:19:07.967Z,23.0
2017-07-18T09:20:09.326Z,23.1
2017-07-18T09:21:10.685Z,23.2
2017-07-18T09:22:12.044Z,23.3
2017-07-18T09:23:13.410Z,23.4
2017-07-18T09:24:14.792Z,23.5
2017-07-18T09:25:16.129Z,22.9
2017-07-18T09:26:17.484Z,23.3
2017-07-18T09:27:18.840Z,23.3
2017-07-18T09:28:20.198Z,23.3
2017-07-18T09:29:21.561Z,23.3
2017-07-18T09:30:22.915Z,23.6
2017-07-18T09:31:24.275Z,23.1
2017-07-18T09:32:25.631Z,23.2
2017-07-18T09:33:26.987Z,23.6
2017-07-18T09:34:28.345Z,23.6
2017-07-18T09:35:29.708Z,23.5
2017-07-18T09:36:31.066Z,23.4
2017-07-18T09:37:32.425Z,23.5
2017-07-18T09:38:33.787Z,23.7
2017-07-18T09:39:35.142Z,24.0
2017-07-18T09:40:36.500Z,23.8
2017-07-18T09:41:37.862Z,23.7
2017-07-18T09:42:39.219Z,23.8
2017-07-18T09:43:40.580Z,24.0
2017-07-18T09:44:41.970Z,24.2
2017-07-18T09:45:43.307Z,24.0
2017-07-18T09:46:44.675Z,23.9
2017-07-18T09:47:46.033Z,24.0
2017-07-18T09:48:47.392Z,24.2
2017-07-18T09:49:48.747Z,24.1
2017-07-18T09:50:50.111Z,24.4
2017-07-18T09:51:51.473Z,24.1
2017-07-18T09:52:52.834Z,24.2
2017-07-18T09:53:54.198Z,24.6
2017-07-18T09:54:55.553Z,24.4
2017-07-18T09:55:56.907Z,24.7
2017-07-18T09:56:58.266Z,24.8
2017-07-18T09:57:59.627Z,24.8
2017-07-18T09:59:01.885Z,24.6
2017-07-18T10:00:03.242Z,24.5
2017-07-18T10:01:04.603Z,24.5
2017-07-18T10:02:05.962Z,24.7
2017-07-18T10:03:07.321Z,25.0
2017-07-18T10:04:08.683Z,25.1
2017-07-18T10:05:10.044Z,25.2
2017-07-18T10:06:11.406Z,25.0
2017-07-18T10:07:12.769Z,25.3
2017-07-18T10:08:14.128Z,25.3
2017-07-18T10:09:15.489Z,25.5
2017-07-18T10:10:16.849Z,25.6
2017-07-18T10:11:18.209Z,25.5
2017-07-18T10:12:19.579Z,25.7
2017-07-18T10:13:20.932Z,25.3
2017-07-18T10:14:22.292Z,25.3
2017-07-18T10:15:23.654Z,25.4
2017-07-18T10:16:25.014Z,25.6
2017-07-18T10:17:26.374Z,25.7
2017-07-18T10:18:27.743Z,25.5
2017-07-18T10:19:29.095Z,25.7
2017-07-18T10:20:30.458Z,25.2
2017-07-18T10:21:31.820Z,25.3
2017-07-18T10:22:33.182Z,25.4
2017-07-18T10:23:34.582Z,25.8
2017-07-18T10:24:35.940Z,25.6
2017-07-18T10:25:37.344Z,25.7
2017-07-18T10:26:38.706Z,25.9
2017-07-18T10:27:40.070Z,26.2
2017-07-18T10:28:41.450Z,26.3
2017-07-18T10:29:42.808Z,26.2
2017-07-18T10:30:44.171Z,25.8
2017-07-18T10:31:45.532Z,26.2
2017-07-18T10:32:46.890Z,26.2
2017-07-18T10:33:48.253Z,26.2
2017-07-18T10:34:49.616Z,26.1
2017-07-18T10:35:50.979Z,26.2
2017-07-18T10:36:52.340Z,26.2
2017-07-18T10:37:53.702Z,26.1
2017-07-18T10:38:55.062Z,26.1
2017-07-18T10:39:56.425Z,26.1
2017-07-18T10:40:57.786Z,26.2
2017-07-18T10:41:59.147Z,26.1
2017-07-18T10:43:00.509Z,26.5
2017-07-18T10:44:01.870Z,26.9
2017-07-18T10:45:03.229Z,27.1
2017-07-18T10:46:04.591Z,26.9
2017-07-18T10:47:05.955Z,26.6
2017-07-18T10:48:07.319Z,26.4
2017-07-18T10:49:08.679Z,26.7
2017-07-18T10:50:10.043Z,26.4
2017-07-18T10:51:11.404Z,26.4
2017-07-18T10:52:12.761Z,26.5
2017-07-18T10:53:14.125Z,26.6
2017-07-18T10:54:15.487Z,27.1
2017-07-18T10:55:16.852Z,27.3
2017-07-18T10:56:18.222Z,27.0
2017-07-18T10:57:19.578Z,27.1
2017-07-18T10:58:20.939Z,27.5
2017-07-18T10:59:22.298Z,27.9
2017-07-18T11:00:23.660Z,27.6
2017-07-18T11:01:25.028Z,27.7
2017-07-18T11:02:26.392Z,27.8
2017-07-18T11:03:27.755Z,28.0
2017-07-18T11:04:29.119Z,28.0
2017-07-18T11:05:30.482Z,28.2
2017-07-18T11:06:31.845Z,28.0
2017-07-18T11:07:33.209Z,27.3
2017-07-18T11:08:34.616Z,27.7
2017-07-18T11:09:35.978Z,27.3
2017-07-18T11:10:37.341Z,27.0
2017-07-18T11:11:38.710Z,27.0
2017-07-18T11:12:40.071Z,26.9
2017-07-18T11:13:41.433Z,27.4
2017-07-18T11:14:42.798Z,27.8
2017-07-18T11:15:44.164Z,28.1
2017-07-18T11:16:45.531Z,28.2
2017-07-18T11:17:46.896Z,28.2
2017-07-18T11:18:48.262Z,28.3
2017-07-18T11:19:49.622Z,28.2
2017-07-18T11:20:50.985Z,27.8
2017-07-18T11:21:52.350Z,28.1
2017-07-18T11:22:53.712Z,28.4
2017-07-18T11:23:55.079Z,29.0
2017-07-18T11:24:56.441Z,29.1
2017-07-18T11:25:57.807Z,28.9
2017-07-18T11:26:59.168Z,28.9
2017-07-18T11:28:00.530Z,28.4
2017-07-18T11:29:01.904Z,29.1
2017-07-18T11:30:03.263Z,29.2
2017-07-18T11:31:04.628Z,29.6
2017-07-18T11:32:05.991Z,29.1
2017-07-18T11:33:07.358Z,29.8
2017-07-18T11:34:08.728Z,30.9
2017-07-18T11:35:10.086Z,30.4
2017-07-18T11:36:11.452Z,31.2
2017-07-18T11:37:12.818Z,31.5
2017-07-18T11:38:14.186Z,31.5
2017-07-18T11:39:15.563Z,31.5
2017-07-18T11:40:16.924Z,31.2
2017-07-18T11:41:18.289Z,31.5
2017-07-18T11:42:19.659Z,30.1
2017-07-18T11:43:21.027Z,30.3
2017-07-18T11:44:22.398Z,30.3
2017-07-18T11:45:23.766Z,30.4
2017-07-18T11:46:25.137Z,30.7
2017-07-18T11:47:26.510Z,30.9
2017-07-18T11:48:27.875Z,31.4
2017-07-18T11:49:29.243Z,31.5
2017-07-18T11:50:30.618Z,32.1
2017-07-18T11:51:31.989Z,31.8
2017-07-18T11:52:33.355Z,32.4
2017-07-18T11:53:35.663Z,32.9
2017-07-18T11:54:37.032Z,34.1
2017-07-18T11:55:38.401Z,33.7
2017-07-18T11:56:39.798Z,34.3
2017-07-18T11:57:41.168Z,34.6
2017-07-18T11:58:42.545Z,34.4
2017-07-18T11:59:44.004Z,33.6
2017-07-18T12:00:45.376Z,32.5
2017-07-18T12:01:46.959Z,33.4
2017-07-18T12:02:48.332Z,33.4
2017-07-18T12:03:49.701Z,33.6
2017-07-18T12:04:51.072Z,34.2
2017-07-18T12:05:52.444Z,34.3
2017-07-18T12:06:53.814Z,34.5
2017-07-18T12:07:55.186Z,34.7
2017-07-18T12:08:57.128Z,33.4
2017-07-18T12:09:58.492Z,32.6
2017-07-18T12:10:59.866Z,32.8
2017-07-18T12:12:01.247Z,33.6
2017-07-18T12:13:02.617Z,33.6
2017-07-18T12:14:03.987Z,33.9
2017-07-18T12:15:05.395Z,33.4
2017-07-18T12:16:06.778Z,33.9
2017-07-18T12:17:08.150Z,33.6
2017-07-18T12:18:09.526Z,34.1
2017-07-18T12:19:10.894Z,34.0
2017-07-18T12:20:12.267Z,34.9
2017-07-18T12:21:13.641Z,33.5
2017-07-18T12:22:15.014Z,33.1
2017-07-18T12:23:16.401Z,34.0
2017-07-18T12:24:17.779Z,34.5
2017-07-18T12:25:19.153Z,35.3
2017-07-18T12:26:20.525Z,35.6
2017-07-18T12:27:21.900Z,35.8
2017-07-18T12:28:23.274Z,35.4
2017-07-18T12:29:24.648Z,34.2
2017-07-18T12:30:26.030Z,35.3
2017-07-18T12:31:27.403Z,36.3
2017-07-18T12:32:28.776Z,35.4
2017-07-18T12:33:30.156Z,35.4
2017-07-18T12:34:31.531Z,35.5
2017-07-18T12:35:32.906Z,34.7
2017-07-18T12:36:34.282Z,35.9
2017-07-18T12:37:35.658Z,35.5
2017-07-18T12:38:37.042Z,35.7
2017-07-18T12:39:38.420Z,34.1
2017-07-18T12:40:39.793Z,34.7
2017-07-18T12:41:41.193Z,35.8
2017-07-18T12:42:42.542Z,36.5
2017-07-18T12:43:43.918Z,35.7
2017-07-18T12:44:45.294Z,35.6
2017-07-18T12:45:46.667Z,36.0
2017-07-18T12:46:48.045Z,36.4
2017-07-18T12:47:49.421Z,35.1
2017-07-18T12:48:50.796Z,35.5
2017-07-18T12:49:52.167Z,35.7
2017-07-18T12:50:53.555Z,36.5
2017-07-18T12:51:54.934Z,35.5
2017-07-18T12:52:56.312Z,35.8
2017-07-18T12:53:57.687Z,36.6
2017-07-18T12:54:59.081Z,36.6
2017-07-18T12:56:00.457Z,35.4
2017-07-18T12:57:01.860Z,35.4
2017-07-18T12:58:03.238Z,35.7
2017-07-18T12:59:04.613Z,35.4
2017-07-18T13:00:05.992Z,35.4
2017-07-18T13:01:07.366Z,36.1
2017-07-18T13:02:08.741Z,36.2
2017-07-18T13:03:10.118Z,37.3
2017-07-18T13:04:11.496Z,36.6
2017-07-18T13:05:12.871Z,35.6
2017-07-18T13:06:14.251Z,36.4
2017-07-18T13:07:15.688Z,36.2
2017-07-18T13:08:17.088Z,36.6
2017-07-18T13:09:18.465Z,36.9
2017-07-18T13:10:19.841Z,37.3
2017-07-18T13:11:21.217Z,36.4
2017-07-18T13:12:22.596Z,36.6
2017-07-18T13:13:23.976Z,35.7
2017-07-18T13:14:25.359Z,35.9
2017-07-18T13:15:26.732Z,35.7
2017-07-18T13:16:28.124Z,36.4
2017-07-18T13:17:29.504Z,36.1
2017-07-18T13:18:30.880Z,36.1
2017-07-18T13:19:32.257Z,36.2
2017-07-18T13:20:33.640Z,36.6
2017-07-18T13:21:35.016Z,36.7
2017-07-18T13:22:36.394Z,37.7
2017-07-18T13:23:37.779Z,37.8
2017-07-18T13:24:39.154Z,37.0
2017-07-18T13:25:40.532Z,36.3
2017-07-18T13:26:41.912Z,36.8
2017-07-18T13:27:43.288Z,37.0
2017-07-18T13:28:44.665Z,36.5
2017-07-18T13:29:46.045Z,35.9
2017-07-18T13:30:47.423Z,35.6
2017-07-18T13:31:48.812Z,35.3
2017-07-18T13:32:50.190Z,35.9
2017-07-18T13:33:51.565Z,36.2
2017-07-18T13:34:52.946Z,36.5
2017-07-18T13:35:54.324Z,35.7
2017-07-18T13:36:55.697Z,36.3
2017-07-18T13:37:57.077Z,35.8
2017-07-18T13:38:58.453Z,36.4
2017-07-18T13:39:59.834Z,36.7
2017-07-18T13:41:01.209Z,36.0
2017-07-18T13:42:02.590Z,35.7
2017-07-18T13:43:03.966Z,36.9
2017-07-18T13:44:05.344Z,36.4
2017-07-18T13:45:06.720Z,36.6
2017-07-18T13:46:08.094Z,36.4
2017-07-18T13:47:10.009Z,36.4
2017-07-18T13:48:11.379Z,37.2
2017-07-18T13:49:12.758Z,36.3
2017-07-18T13:50:14.136Z,37.1
2017-07-18T13:51:15.511Z,37.6
2017-07-18T13:52:16.884Z,37.3
2017-07-18T13:53:18.261Z,37.2
2017-07-18T13:54:19.639Z,37.8
2017-07-18T13:55:21.018Z,37.4
2017-07-18T13:56:22.397Z,37.0
2017-07-18T13:57:23.773Z,37.1
2017-07-18T13:58:25.155Z,37.1
2017-07-18T13:59:26.534Z,36.4
2017-07-18T14:00:27.910Z,36.2
2017-07-18T14:01:29.290Z,36.3
2017-07-18T14:02:30.668Z,36.5
2017-07-18T14:03:32.050Z,36.5
2017-07-18T14:04:33.433Z,36.4
2017-07-18T14:05:34.810Z,37.5
2017-07-18T14:06:36.187Z,37.5
2017-07-18T14:07:37.563Z,37.3
2017-07-18T14:08:38.954Z,37.6
2017-07-18T14:09:40.331Z,35.2
2017-07-18T14:10:41.717Z,36.0
2017-07-18T14:11:43.092Z,36.5
2017-07-18T14:12:44.470Z,36.5
2017-07-18T14:13:45.848Z,37.7
2017-07-18T14:14:47.225Z,37.1
2017-07-18T14:15:48.605Z,36.9
2017-07-18T14:16:49.998Z,36.9
2017-07-18T14:17:51.385Z,35.9
2017-07-18T14:18:52.764Z,36.1
2017-07-18T14:19:54.136Z,35.6
2017-07-18T14:20:55.513Z,35.8
2017-07-18T14:21:56.894Z,35.8
2017-07-18T14:22:58.274Z,35.1
2017-07-18T14:23:59.666Z,35.9
2017-07-18T14:25:01.049Z,36.4
2017-07-18T14:26:02.421Z,37.4
2017-07-18T14:27:03.798Z,36.5
2017-07-18T14:28:05.182Z,36.9
2017-07-18T14:29:06.599Z,35.7
2017-07-18T14:30:07.978Z,35.9
2017-07-18T14:31:09.360Z,35.7
2017-07-18T14:32:10.739Z,36.4
2017-07-18T14:33:12.118Z,36.2
2017-07-18T14:34:13.497Z,36.9
2017-07-18T14:35:14.888Z,35.6
2017-07-18T14:36:16.267Z,35.5
2017-07-18T14:37:17.650Z,35.3
2017-07-18T14:38:19.026Z,34.6
2017-07-18T14:39:20.410Z,34.8
2017-07-18T14:40:21.788Z,34.9
2017-07-18T14:41:23.163Z,34.5
2017-07-18T14:42:24.544Z,33.7
2017-07-18T14:43:26.379Z,33.8
2017-07-18T14:44:28.602Z,34.1
2017-07-18T14:45:32.089Z,33.9
2017-07-18T14:46:33.466Z,32.7
2017-07-18T14:47:34.838Z,32.7
2017-07-18T14:48:36.359Z,32.6
2017-07-18T14:49:37.793Z,32.6
2017-07-18T14:50:39.161Z,32.9
2017-07-18T14:51:40.536Z,31.9
2017-07-18T14:52:41.908Z,31.5
2017-07-18T14:53:43.281Z,31.8
2017-07-18T14:54:44.660Z,31.4
2017-07-18T14:55:46.030Z,30.7
2017-07-18T14:56:47.402Z,31.0
2017-07-18T14:57:48.775Z,31.0
2017-07-18T14:58:50.148Z,30.9
2017-07-18T14:59:51.682Z,31.5
2017-07-18T15:00:53.057Z,32.5
2017-07-18T15:01:54.459Z,32.2
2017-07-18T15:02:55.849Z,32.5
2017-07-18T15:03:57.219Z,32.4
2017-07-18T15:04:58.590Z,32.2
2017-07-18T15:05:59.963Z,32.7
2017-07-18T15:07:01.454Z,32.7
2017-07-18T15:08:02.826Z,32.5
2017-07-18T15:09:04.198Z,32.5
2017-07-18T15:10:05.621Z,33.5
2017-07-18T15:11:06.989Z,34.1
2017-07-18T15:12:08.363Z,33.7
2017-07-18T15:13:09.740Z,33.5
2017-07-18T15:14:11.113Z,33.6
2017-07-18T15:15:12.487Z,33.7
2017-07-18T15:16:13.861Z,33.5
2017-07-18T15:17:15.227Z,33.0
2017-07-18T15:18:16.599Z,32.9
2017-07-18T15:19:17.976Z,32.9
2017-07-18T15:20:19.350Z,33.5
2017-07-18T15:21:20.725Z,33.4
2017-07-18T15:22:22.098Z,33.7
2017-07-18T15:23:23.473Z,33.4
2017-07-18T15:24:24.844Z,33.1
2017-07-18T15:25:26.220Z,33.6
2017-07-18T15:26:27.598Z,33.4
2017-07-18T15:27:28.969Z,33.7
2017-07-18T15:28:30.384Z,32.1
2017-07-18T15:29:31.738Z,33.8
2017-07-18T15:30:33.114Z,33.7
2017-07-18T15:31:34.484Z,33.4
2017-07-18T15:32:35.854Z,32.0
2017-07-18T15:33:37.227Z,31.5
2017-07-18T15:34:38.599Z,31.2
2017-07-18T15:35:39.976Z,30.4
2017-07-18T15:36:41.347Z,30.0
2017-07-18T15:37:42.716Z,29.8
2017-07-18T15:38:44.154Z,29.5
2017-07-18T15:39:45.529Z,29.2
2017-07-18T15:40:46.906Z,28.6
2017-07-18T15:41:48.265Z,28.1
2017-07-18T15:42:49.688Z,28.4
2017-07-18T15:43:51.754Z,28.5
2017-07-18T15:44:53.122Z,28.2
2017-07-18T15:45:54.490Z,28.1
2017-07-18T15:46:55.862Z,28.2
2017-07-18T15:47:57.226Z,27.7
2017-07-18T15:48:58.594Z,27.8
2017-07-18T15:49:59.960Z,28.0
2017-07-18T15:51:01.336Z,28.2
2017-07-18T15:52:02.694Z,27.9
2017-07-18T15:53:04.057Z,27.7
2017-07-18T15:54:05.425Z,27.5
2017-07-18T15:55:06.859Z,27.5
2017-07-18T15:56:10.054Z,27.3
2017-07-18T15:57:11.363Z,27.4
2017-07-18T15:58:12.976Z,27.5
2017-07-18T15:59:15.241Z,27.4
2017-07-18T16:00:16.613Z,27.3
2017-07-18T16:01:18.191Z,27.0
2017-07-18T16:02:19.929Z,27.0
2017-07-18T16:03:21.292Z,26.9
2017-07-18T16:04:22.654Z,27.0
2017-07-18T16:05:24.016Z,27.3
2017-07-18T16:06:25.385Z,27.1
2017-07-18T16:07:26.747Z,26.8
2017-07-18T16:08:28.112Z,26.8
2017-07-18T16:09:30.046Z,26.8
2017-07-18T16:10:31.414Z,26.6
2017-07-18T16:11:32.778Z,26.8
2017-07-18T16:12:34.139Z,26.6
2017-07-18T16:13:35.500Z,26.8
2017-07-18T16:14:36.862Z,26.7
2017-07-18T16:15:38.221Z,26.7
2017-07-18T16:16:39.581Z,26.5
2017-07-18T16:17:40.942Z,26.5
2017-07-18T16:18:42.306Z,26.4
2017-07-18T16:19:43.668Z,26.3
2017-07-18T16:39:16.768Z,25.2
2017-07-18T16:40:18.138Z,25.3
2017-07-18T16:41:39.580Z,25.4
2017-07-18T16:42:40.981Z,25.5
2017-07-18T16:44:11.830Z,25.4
2017-07-18T16:45:13.206Z,25.3
2017-07-18T16:45:58.239Z,25.3
2017-07-18T16:46:19.611Z,25.3
2017-07-18T16:47:27.938Z,25.4
2017-07-18T17:18:24.501Z,24.7
2017-07-18T17:18:48.130Z,24.7
2017-07-18T17:35:59.950Z,25.3
2017-07-18T17:38:28.314Z,25.5
2017-07-18T17:39:29.665Z,25.7
2017-07-18T17:51:25.426Z,25.6
2017-07-18T17:52:26.782Z,25.5
2017-07-18T17:53:48.213Z,26.1
2017-07-18T17:54:49.567Z,26.2
2017-07-18T17:56:11.390Z,26.6
2017-07-18T18:12:47.643Z,24.2
2017-07-18T18:13:36.533Z,24.2
2017-07-18T18:19:47.879Z,24.3
2017-07-18T18:20:49.223Z,24.5
2017-07-18T18:44:07.616Z,24.8
2017-07-18T18:45:08.965Z,25.0
2017-07-18T18:46:09.222Z,25.2
2017-07-18T18:47:11.760Z,25.2
2017-07-18T19:00:24.684Z,24.5
2017-07-18T19:01:22.811Z,24.4
2017-07-18T19:02:24.410Z,24.4
2017-07-18T19:04:18.600Z,24.7
2017-07-18T19:07:27.650Z,24.0
2017-07-18T19:08:29.211Z,23.2
2017-07-18T19:09:30.815Z,23.2
2017-07-18T19:10:32.419Z,23.0
2017-07-18T19:11:34.024Z,22.8
2017-07-18T19:12:35.634Z,22.8
2017-07-18T19:13:37.241Z,22.7
2017-07-18T19:14:38.849Z,22.4
2017-07-18T19:15:40.450Z,22.5
2017-07-18T19:16:42.059Z,22.5
2017-07-18T19:17:43.670Z,22.5
2017-07-18T19:18:45.279Z,22.5
2017-07-18T19:19:46.888Z,22.5
2017-07-18T19:20:48.499Z,22.3
2017-07-18T19:21:53.451Z,22.3
2017-07-18T19:23:02.597Z,22.3
2017-07-18T19:24:11.483Z,22.2
2017-07-18T19:25:13.399Z,22.3
2017-07-18T19:26:15.361Z,22.3
2017-07-18T19:27:17.122Z,22.1
2017-07-18T19:28:22.806Z,22.2
2017-07-18T19:29:24.518Z,22.2
2017-07-18T19:30:26.119Z,22.2
2017-07-18T19:31:27.725Z,22.3
2017-07-18T19:32:29.893Z,22.1
2017-07-18T19:33:31.493Z,22.1
2017-07-18T19:34:33.101Z,22.0
2017-07-18T19:35:34.711Z,21.9
2017-07-18T19:36:36.318Z,21.9
2017-07-18T19:37:37.920Z,22.0
2017-07-18T19:38:39.535Z,22.1
2017-07-18T19:39:41.230Z,21.9
2017-07-18T19:40:42.896Z,21.9
2017-07-18T19:41:48.365Z,22.0
2017-07-18T19:42:49.969Z,21.8
2017-07-18T19:43:51.577Z,21.8
2017-07-18T19:44:53.178Z,21.8
2017-07-18T19:45:54.783Z,21.9
2017-07-18T19:46:56.386Z,21.8
2017-07-18T19:47:57.994Z,21.7
2017-07-18T19:48:59.605Z,21.7
2017-07-18T19:50:01.204Z,21.7
2017-07-18T19:51:02.818Z,21.7
2017-07-18T19:52:04.418Z,21.5
2017-07-18T19:53:06.022Z,21.6
2017-07-18T19:54:07.630Z,21.5
2017-07-18T19:55:09.545Z,21.6
2017-07-18T19:56:11.292Z,21.5
2017-07-18T19:57:12.897Z,21.5
2017-07-18T19:58:14.506Z,21.6
2017-07-18T19:59:16.108Z,21.5
2017-07-18T20:19:35.553Z,24.9
2017-07-18T20:20:37.749Z,24.8
2017-07-18T20:22:28.395Z,24.7
2017-07-18T20:23:29.995Z,24.7
2017-07-18T20:25:21.843Z,24.7
2017-07-18T20:26:23.447Z,24.7
2017-07-18T20:28:14.091Z,24.8
2017-07-18T20:29:15.696Z,24.9
2017-07-18T20:31:06.716Z,24.9
2017-07-18T20:32:08.346Z,25.0
2017-07-18T20:33:59.002Z,25.1
2017-07-18T20:35:00.616Z,25.1
2017-07-18T20:38:07.683Z,23.0
2017-07-18T20:39:09.410Z,22.0
2017-07-18T20:41:01.067Z,21.3
2017-07-18T20:42:02.668Z,21.0
2017-07-18T20:43:54.722Z,20.8
2017-07-18T20:44:56.334Z,20.6
2017-07-18T20:46:48.001Z,20.0
2017-07-18T20:47:49.606Z,20.1
2017-07-18T20:49:41.622Z,19.9
2017-07-18T20:50:43.224Z,20.0
2017-07-18T20:52:34.886Z,19.8
2017-07-18T20:53:36.496Z,19.7
2017-07-18T20:55:28.474Z,19.8
2017-07-18T20:56:30.076Z,19.6
2017-07-18T20:58:21.736Z,19.5
2017-07-18T20:59:23.338Z,19.5
2017-07-18T21:01:15.335Z,19.4
2017-07-18T21:02:16.945Z,19.3
2017-07-18T21:04:09.569Z,19.2
2017-07-18T21:05:11.175Z,19.2
2017-07-18T21:07:03.069Z,19.2
2017-07-18T21:08:05.419Z,19.2
2017-07-18T21:09:57.074Z,19.2
2017-07-18T21:10:58.672Z,19.1
2017-07-18T21:12:50.734Z,19.1
2017-07-18T21:13:52.340Z,19.1
2017-07-18T21:15:43.993Z,19.2
2017-07-18T21:19:32.135Z,20.0
2017-07-18T21:20:33.738Z,19.5
2017-07-18T21:22:25.395Z,19.2
2017-07-18T21:23:26.996Z,19.2
2017-07-18T21:25:18.982Z,19.2
2017-07-18T21:26:20.584Z,19.2
2017-07-18T21:28:12.238Z,19.2
2017-07-18T21:29:13.836Z,19.2
2017-07-18T21:31:05.880Z,19.2
2017-07-18T21:32:07.479Z,19.1
2017-07-18T21:33:59.128Z,19.0
2017-07-18T21:35:00.730Z,19.2
2017-07-18T21:36:52.707Z,19.2
2017-07-18T21:37:54.307Z,19.2
2017-07-18T21:39:45.960Z,19.1
2017-07-18T21:40:47.562Z,19.2
2017-07-18T21:42:39.658Z,19.2
2017-07-18T21:43:41.262Z,19.2
2017-07-18T21:45:32.919Z,19.2
2017-07-18T21:46:34.518Z,19.2
2017-07-18T21:48:26.599Z,19.1
2017-07-18T21:49:28.197Z,19.1
2017-07-18T21:51:19.848Z,19.1
2017-07-18T21:52:21.453Z,19.0
2017-07-18T21:54:13.381Z,19.2
2017-07-18T21:55:14.989Z,19.2
2017-07-18T21:57:06.637Z,19.1
2017-07-18T21:58:08.261Z,19.0
2017-07-18T22:00:00.219Z,19.0
2017-07-18T22:01:01.817Z,19.1
2017-07-18T22:02:53.472Z,19.1
2017-07-18T22:03:55.074Z,19.1
2017-07-18T22:05:47.096Z,19.0
2017-07-18T22:06:48.697Z,19.0
2017-07-18T22:08:40.349Z,19.1
2017-07-18T22:09:41.951Z,19.0
2017-07-18T22:11:34.093Z,19.0
2017-07-18T22:12:35.694Z,19.0
2017-07-18T22:14:27.353Z,19.1
2017-07-18T22:15:28.951Z,19.2
2017-07-18T22:17:20.991Z,19.0
2017-07-18T22:18:22.598Z,19.0
2017-07-18T22:20:14.237Z,19.0
2017-07-18T22:21:15.840Z,18.8
2017-07-18T22:23:07.905Z,18.9
2017-07-18T22:24:09.505Z,18.7
2017-07-18T22:26:01.159Z,18.7
2017-07-18T22:27:02.765Z,18.8
2017-07-18T22:28:54.713Z,18.8
2017-07-18T22:36:40.266Z,19.2